sensor_id;sensor_type;location;lat;lon;timestamp;pressure;altitude;pressure_sealevel;temperature;humidity
35878;BME280;21982;49.804;24.072;2022-09-17T00:01:08;96239.97;;;14.90;69.64
35878;BME280;21982;49.804;24.072;2022-09-17T00:03:47;96257.72;;;15.01;69.00
35878;BME280;21982;49.804;24.072;2022-09-17T00:06:13;96234.59;;;14.73;69.54
35878;BME280;21982;49.804;24.072;2022-09-17T00:08:40;96262.88;;;14.91;69.76
35878;BME280;21982;49.804;24.072;2022-09-17T00:11:15;96175.59;;;14.36;69.45
35878;BME280;21982;49.804;24.072;2022-09-17T00:13:43;96017.41;;;13.30;69.84
35878;BME280;21982;49.804;24.072;2022-09-17T00:16:10;96260.16;;;14.86;69.84
35878;BME280;21982;49.804;24.072;2022-09-17T00:18:39;96176.38;;;14.36;69.57
35878;BME280;21982;49.804;24.072;2022-09-17T00:21:07;96209.06;;;14.60;70.15
35878;BME280;21982;49.804;24.072;2022-09-17T00:23:40;96172.44;;;14.39;69.75
35878;BME280;21982;49.804;24.072;2022-09-17T00:26:09;96188.41;;;14.51;69.70
35878;BME280;21982;49.804;24.072;2022-09-17T00:28:34;96151.50;;;14.31;69.92
35878;BME280;21982;49.804;24.072;2022-09-17T00:31:00;96231.41;;;14.88;69.70
35878;BME280;21982;49.804;24.072;2022-09-17T00:33:29;96224.63;;;14.80;69.76
35878;BME280;21982;49.804;24.072;2022-09-17T00:36:02;96190.66;;;14.59;69.83
35878;BME280;21982;49.804;24.072;2022-09-17T00:38:28;96236.09;;;14.81;70.11
35878;BME280;21982;49.804;24.072;2022-09-17T00:40:54;96231.81;;;14.80;70.06
35878;BME280;21982;49.804;24.072;2022-09-17T00:43:37;96244.16;;;14.86;69.93
35878;BME280;21982;49.804;24.072;2022-09-17T00:46:39;96238.97;;;14.79;69.69
35878;BME280;21982;49.804;24.072;2022-09-17T00:49:16;96249.78;;;14.72;70.25
35878;BME280;21982;49.804;24.072;2022-09-17T00:51:54;96140.09;;;14.02;70.47
35878;BME280;21982;49.804;24.072;2022-09-17T00:54:30;96237.16;;;14.51;71.08
35878;BME280;21982;49.804;24.072;2022-09-17T00:56:57;96194.03;;;14.26;71.57
35878;BME280;21982;49.804;24.072;2022-09-17T00:59:28;96144.97;;;13.93;71.57
35878;BME280;21982;49.804;24.072;2022-09-17T01:01:54;96229.53;;;14.43;71.99
35878;BME280;21982;49.804;24.072;2022-09-17T01:04:23;96220.50;;;14.44;72.02
35878;BME280;21982;49.804;24.072;2022-09-17T01:07:19;96225.84;;;14.44;72.02
35878;BME280;21982;49.804;24.072;2022-09-17T01:26:33;96219.47;;;14.05;73.03
35878;BME280;21982;49.804;24.072;2022-09-17T01:31:56;96224.81;;;13.93;73.66
35878;BME280;21982;49.804;24.072;2022-09-17T01:34:40;96227.56;;;13.98;73.80
35878;BME280;21982;49.804;24.072;2022-09-17T01:45:38;96230.03;;;13.88;74.25
35878;BME280;21982;49.804;24.072;2022-09-17T01:48:03;96229.78;;;13.90;74.08
35878;BME280;21982;49.804;24.072;2022-09-17T01:51:05;96226.25;;;13.84;73.96
35878;BME280;21982;49.804;24.072;2022-09-17T01:53:51;96230.53;;;13.85;74.45
35878;BME280;21982;49.804;24.072;2022-09-17T01:56:26;96235.03;;;13.85;74.82
35878;BME280;21982;49.804;24.072;2022-09-17T01:58:58;96239.03;;;13.87;74.93
35878;BME280;21982;49.804;24.072;2022-09-17T02:01:27;96238.50;;;13.85;75.24
35878;BME280;21982;49.804;24.072;2022-09-17T02:04:03;96209.25;;;13.73;75.02
35878;BME280;21982;49.804;24.072;2022-09-17T02:06:37;96156.22;;;13.44;75.33
35878;BME280;21982;49.804;24.072;2022-09-17T02:09:12;96185.88;;;13.64;75.30
35878;BME280;21982;49.804;24.072;2022-09-17T02:11:43;96243.44;;;13.93;75.43
35878;BME280;21982;49.804;24.072;2022-09-17T02:14:17;96194.56;;;13.71;75.57
35878;BME280;21982;49.804;24.072;2022-09-17T02:16:51;96149.28;;;13.43;75.41
35878;BME280;21982;49.804;24.072;2022-09-17T02:29:59;96228.03;;;13.95;75.84
35878;BME280;21982;49.804;24.072;2022-09-17T02:32:25;96214.63;;;13.90;75.99
35878;BME280;21982;49.804;24.072;2022-09-17T02:34:51;96120.97;;;13.36;75.85
35878;BME280;21982;49.804;24.072;2022-09-17T02:37:17;96223.88;;;13.99;76.15
35878;BME280;21982;49.804;24.072;2022-09-17T02:39:45;96223.16;;;14.04;76.13
35878;BME280;21982;49.804;24.072;2022-09-17T02:42:48;96139.34;;;13.50;75.34
35878;BME280;21982;49.804;24.072;2022-09-17T02:48:10;96236.25;;;13.94;76.31
35878;BME280;21982;49.804;24.072;2022-09-17T02:54:05;96262.06;;;13.93;76.07
35878;BME280;21982;49.804;24.072;2022-09-17T03:02:29;96134.03;;;13.26;76.05
35878;BME280;21982;49.804;24.072;2022-09-17T03:04:56;96236.84;;;13.96;76.26
35878;BME280;21982;49.804;24.072;2022-09-17T03:07:22;96212.13;;;13.84;76.55
35878;BME280;21982;49.804;24.072;2022-09-17T03:09:48;96210.59;;;13.88;76.70
35878;BME280;21982;49.804;24.072;2022-09-17T03:12:15;96234.28;;;14.01;76.73
35878;BME280;21982;49.804;24.072;2022-09-17T03:14:40;96221.31;;;14.04;76.36
35878;BME280;21982;49.804;24.072;2022-09-17T03:17:06;96220.84;;;14.07;76.52
35878;BME280;21982;49.804;24.072;2022-09-17T03:19:31;96215.06;;;14.11;76.32
35878;BME280;21982;49.804;24.072;2022-09-17T03:21:57;96056.84;;;13.09;76.25
35878;BME280;21982;49.804;24.072;2022-09-17T03:24:22;96098.75;;;13.43;75.84
35878;BME280;21982;49.804;24.072;2022-09-17T03:26:48;96088.47;;;13.34;75.94
35878;BME280;21982;49.804;24.072;2022-09-17T03:29:14;96168.50;;;13.85;75.81
35878;BME280;21982;49.804;24.072;2022-09-17T03:31:39;96238.53;;;14.14;76.05
35878;BME280;21982;49.804;24.072;2022-09-17T03:34:05;96195.63;;;13.98;75.86
35878;BME280;21982;49.804;24.072;2022-09-17T03:36:31;96220.63;;;14.09;76.02
35878;BME280;21982;49.804;24.072;2022-09-17T03:39:00;96243.47;;;14.22;75.71
35878;BME280;21982;49.804;24.072;2022-09-17T03:41:26;95897.97;;;12.08;75.72
35878;BME280;21982;49.804;24.072;2022-09-17T03:43:55;96239.47;;;14.19;75.46
35878;BME280;21982;49.804;24.072;2022-09-17T03:46:21;95952.41;;;12.34;75.43
35878;BME280;21982;49.804;24.072;2022-09-17T03:48:50;96168.06;;;13.76;75.59
35878;BME280;21982;49.804;24.072;2022-09-17T03:51:16;96067.81;;;13.25;74.97
35878;BME280;21982;49.804;24.072;2022-09-17T03:53:41;96221.56;;;14.31;74.90
35878;BME280;21982;49.804;24.072;2022-09-17T03:56:07;96223.19;;;14.32;74.79
35878;BME280;21982;49.804;24.072;2022-09-17T03:58:33;96191.19;;;14.16;74.79
35878;BME280;21982;49.804;24.072;2022-09-17T04:00:59;96215.19;;;14.32;74.41
35878;BME280;21982;49.804;24.072;2022-09-17T04:03:25;96164.75;;;13.97;74.18
35878;BME280;21982;49.804;24.072;2022-09-17T04:05:54;96116.38;;;13.72;74.16
35878;BME280;21982;49.804;24.072;2022-09-17T04:08:20;96225.59;;;14.34;74.04
35878;BME280;21982;49.804;24.072;2022-09-17T04:10:48;96194.44;;;14.18;73.76
35878;BME280;21982;49.804;24.072;2022-09-17T04:13:16;96216.09;;;14.38;73.72
35878;BME280;21982;49.804;24.072;2022-09-17T04:15:44;96187.66;;;14.27;73.38
35878;BME280;21982;49.804;24.072;2022-09-17T04:18:16;96198.41;;;14.44;72.94
35878;BME280;21982;49.804;24.072;2022-09-17T04:20:42;96102.47;;;13.82;72.91
35878;BME280;21982;49.804;24.072;2022-09-17T04:23:09;96218.03;;;14.54;72.71
35878;BME280;21982;49.804;24.072;2022-09-17T04:25:35;96163.44;;;14.12;72.58
35878;BME280;21982;49.804;24.072;2022-09-17T04:28:00;96203.81;;;14.37;72.58
35878;BME280;21982;49.804;24.072;2022-09-17T04:30:26;96163.66;;;14.10;72.37
35878;BME280;21982;49.804;24.072;2022-09-17T04:32:51;96222.59;;;14.42;72.48
35878;BME280;21982;49.804;24.072;2022-09-17T04:35:20;96219.94;;;14.42;72.33
35878;BME280;21982;49.804;24.072;2022-09-17T04:37:58;96185.09;;;14.32;72.18
35878;BME280;21982;49.804;24.072;2022-09-17T04:40:25;96209.84;;;14.44;72.08
35878;BME280;21982;49.804;24.072;2022-09-17T04:42:56;96221.09;;;14.46;71.94
35878;BME280;21982;49.804;24.072;2022-09-17T04:45:31;96183.78;;;14.18;72.33
35878;BME280;21982;49.804;24.072;2022-09-17T04:47:57;96180.06;;;14.19;72.23
35878;BME280;21982;49.804;24.072;2022-09-17T04:50:23;96155.81;;;14.03;72.21
35878;BME280;21982;49.804;24.072;2022-09-17T04:52:49;96226.50;;;14.51;72.30
35878;BME280;21982;49.804;24.072;2022-09-17T04:55:15;96133.28;;;13.94;72.02
35878;BME280;21982;49.804;24.072;2022-09-17T04:57:51;96223.53;;;14.64;71.69
35878;BME280;21982;49.804;24.072;2022-09-17T05:00:18;96136.13;;;14.04;71.78
35878;BME280;21982;49.804;24.072;2022-09-17T05:02:46;96096.16;;;13.88;71.45
35878;BME280;21982;49.804;24.072;2022-09-17T05:05:13;96223.38;;;14.71;71.50
35878;BME280;21982;49.804;24.072;2022-09-17T05:07:40;96184.59;;;14.47;71.81
35878;BME280;21982;49.804;24.072;2022-09-17T05:10:06;96145.84;;;14.27;71.54
35878;BME280;21982;49.804;24.072;2022-09-17T05:12:32;96219.75;;;14.77;71.74
35878;BME280;21982;49.804;24.072;2022-09-17T05:15:00;96177.28;;;14.54;71.66
35878;BME280;21982;49.804;24.072;2022-09-17T05:17:25;96201.69;;;14.79;71.60
35878;BME280;21982;49.804;24.072;2022-09-17T05:19:51;96211.03;;;14.82;71.73
35878;BME280;21982;49.804;24.072;2022-09-17T05:22:18;96206.53;;;14.82;71.59
35878;BME280;21982;49.804;24.072;2022-09-17T05:24:43;96197.81;;;14.87;71.42
35878;BME280;21982;49.804;24.072;2022-09-17T05:27:09;96160.63;;;14.63;71.26
35878;BME280;21982;49.804;24.072;2022-09-17T05:29:35;96160.63;;;14.63;70.99
35878;BME280;21982;49.804;24.072;2022-09-17T05:32:03;96215.97;;;15.06;71.13
35878;BME280;21982;49.804;24.072;2022-09-17T05:34:28;96220.25;;;15.07;nan
35878;BME280;21982;49.804;24.072;2022-09-17T05:36:54;96167.94;;;14.85;71.49
35878;BME280;21982;49.804;24.072;2022-09-17T05:39:19;96215.91;;;15.18;71.25
35878;BME280;21982;49.804;24.072;2022-09-17T05:41:52;96169.84;;;15.06;71.04
35878;BME280;21982;49.804;24.072;2022-09-17T05:44:18;96175.25;;;15.11;70.58
35878;BME280;21982;49.804;24.072;2022-09-17T05:46:45;96212.97;;;15.36;70.10
35878;BME280;21982;49.804;24.072;2022-09-17T05:49:11;96216.59;;;15.47;69.83
35878;BME280;21982;49.804;24.072;2022-09-17T05:51:37;96157.06;;;15.08;69.65
35878;BME280;21982;49.804;24.072;2022-09-17T05:54:02;96207.38;;;15.38;69.54
35878;BME280;21982;49.804;24.072;2022-09-17T05:56:28;96195.81;;;15.32;69.46
35878;BME280;21982;49.804;24.072;2022-09-17T05:58:55;96136.88;;;14.95;69.18
35878;BME280;21982;49.804;24.072;2022-09-17T06:01:22;96222.31;;;15.56;69.14
35878;BME280;21982;49.804;24.072;2022-09-17T06:03:48;96171.94;;;15.21;68.73
35878;BME280;21982;49.804;24.072;2022-09-17T06:06:14;96165.81;;;15.20;68.38
35878;BME280;21982;49.804;24.072;2022-09-17T06:08:39;96140.50;;;15.06;68.33
35878;BME280;21982;49.804;24.072;2022-09-17T06:11:06;96232.66;;;15.69;68.44
35878;BME280;21982;49.804;24.072;2022-09-17T06:13:32;96231.13;;;15.73;68.00
35878;BME280;21982;49.804;24.072;2022-09-17T06:16:00;96223.13;;;15.73;67.96
35878;BME280;21982;49.804;24.072;2022-09-17T06:18:30;96173.50;;;15.38;68.25
35878;BME280;21982;49.804;24.072;2022-09-17T06:21:00;96225.78;;;15.73;68.18
35878;BME280;21982;49.804;24.072;2022-09-17T06:23:26;96230.69;;;15.81;67.86
35878;BME280;21982;49.804;24.072;2022-09-17T06:25:54;96174.69;;;15.64;67.75
35878;BME280;21982;49.804;24.072;2022-09-17T06:28:19;96201.09;;;15.83;67.46
35878;BME280;21982;49.804;24.072;2022-09-17T06:30:45;96224.56;;;16.02;67.12
35878;BME280;21982;49.804;24.072;2022-09-17T06:33:11;96204.88;;;15.87;67.16
35878;BME280;21982;49.804;24.072;2022-09-17T06:35:37;96199.66;;;15.97;67.21
35878;BME280;21982;49.804;24.072;2022-09-17T06:38:05;96217.28;;;16.20;66.67
35878;BME280;21982;49.804;24.072;2022-09-17T06:40:31;96166.22;;;15.89;67.02
35878;BME280;21982;49.804;24.072;2022-09-17T06:42:57;96215.78;;;16.29;66.58
35878;BME280;21982;49.804;24.072;2022-09-17T06:45:27;96235.72;;;16.43;66.51
35878;BME280;21982;49.804;24.072;2022-09-17T06:47:52;96204.88;;;16.08;66.37
35878;BME280;21982;49.804;24.072;2022-09-17T06:50:18;96229.00;;;15.97;66.64
35878;BME280;21982;49.804;24.072;2022-09-17T06:52:48;96239.09;;;15.90;67.09
35878;BME280;21982;49.804;24.072;2022-09-17T06:55:15;96230.00;;;15.69;67.54
35878;BME280;21982;49.804;24.072;2022-09-17T06:57:41;96248.09;;;15.67;67.75
35878;BME280;21982;49.804;24.072;2022-09-17T07:00:08;96242.53;;;15.68;67.98
35878;BME280;21982;49.804;24.072;2022-09-17T07:02:33;96179.91;;;15.37;67.59
35878;BME280;21982;49.804;24.072;2022-09-17T07:04:59;96203.22;;;15.64;67.63
35878;BME280;21982;49.804;24.072;2022-09-17T07:07:25;96210.75;;;15.67;67.49
35878;BME280;21982;49.804;24.072;2022-09-17T07:09:54;96249.78;;;15.90;68.07
35878;BME280;21982;49.804;24.072;2022-09-17T07:12:20;96240.56;;;15.81;68.06
35878;BME280;21982;49.804;24.072;2022-09-17T07:14:48;96156.88;;;15.31;68.16
35878;BME280;21982;49.804;24.072;2022-09-17T07:17:14;96262.44;;;15.99;68.05
35878;BME280;21982;49.804;24.072;2022-09-17T07:19:40;96124.31;;;15.29;68.01
35878;BME280;21982;49.804;24.072;2022-09-17T07:22:06;96233.63;;;16.01;67.37
35878;BME280;21982;49.804;24.072;2022-09-17T07:24:32;96148.34;;;15.51;67.86
35878;BME280;21982;49.804;24.072;2022-09-17T07:27:00;96199.78;;;15.85;67.49
35878;BME280;21982;49.804;24.072;2022-09-17T07:29:26;96262.13;;;16.18;67.36
35878;BME280;21982;49.804;24.072;2022-09-17T07:31:52;96243.81;;;16.04;67.19
35878;BME280;21982;49.804;24.072;2022-09-17T07:34:22;96271.22;;;16.17;67.37
35878;BME280;21982;49.804;24.072;2022-09-17T07:36:47;96266.44;;;16.19;67.27
35878;BME280;21982;49.804;24.072;2022-09-17T07:39:13;96255.50;;;16.20;67.36
35878;BME280;21982;49.804;24.072;2022-09-17T07:41:39;96257.19;;;16.26;67.35
35878;BME280;21982;49.804;24.072;2022-09-17T07:44:08;96212.25;;;16.01;67.02
35878;BME280;21982;49.804;24.072;2022-09-17T07:46:34;96259.13;;;16.36;66.87
35878;BME280;21982;49.804;24.072;2022-09-17T07:48:59;96234.47;;;16.29;66.94
35878;BME280;21982;49.804;24.072;2022-09-17T07:51:27;96258.75;;;16.49;66.58
35878;BME280;21982;49.804;24.072;2022-09-17T07:53:54;96170.59;;;16.00;66.47
35878;BME280;21982;49.804;24.072;2022-09-17T07:56:20;96248.13;;;16.54;66.36
35878;BME280;21982;49.804;24.072;2022-09-17T07:58:46;96208.44;;;16.41;66.42
35878;BME280;21982;49.804;24.072;2022-09-17T08:01:13;96246.28;;;16.82;66.28
35878;BME280;21982;49.804;24.072;2022-09-17T08:03:41;96259.81;;;16.97;65.95
35878;BME280;21982;49.804;24.072;2022-09-17T08:06:08;96253.53;;;17.13;65.08
35878;BME280;21982;49.804;24.072;2022-09-17T08:08:34;96228.84;;;17.06;64.28
35878;BME280;21982;49.804;24.072;2022-09-17T08:11:08;96141.78;;;16.56;63.81
35878;BME280;21982;49.804;24.072;2022-09-17T08:13:37;96235.94;;;17.22;63.31
35878;BME280;21982;49.804;24.072;2022-09-17T08:16:06;96249.75;;;17.46;63.16
35878;BME280;21982;49.804;24.072;2022-09-17T08:18:35;96263.81;;;17.63;62.84
35878;BME280;21982;49.804;24.072;2022-09-17T08:21:03;96262.06;;;17.79;62.18
35878;BME280;21982;49.804;24.072;2022-09-17T08:23:30;96257.81;;;17.83;61.57
35878;BME280;21982;49.804;24.072;2022-09-17T08:25:57;96251.63;;;17.83;61.57
35878;BME280;21982;49.804;24.072;2022-09-17T08:28:25;96239.09;;;17.88;61.31
35878;BME280;21982;49.804;24.072;2022-09-17T08:30:52;96203.72;;;17.86;60.39
35878;BME280;21982;49.804;24.072;2022-09-17T08:33:18;96250.53;;;18.31;60.58
35878;BME280;21982;49.804;24.072;2022-09-17T08:35:51;96199.59;;;18.26;59.96
35878;BME280;21982;49.804;24.072;2022-09-17T08:38:17;96259.28;;;18.89;59.45
35878;BME280;21982;49.804;24.072;2022-09-17T08:41:33;96265.75;;;19.43;58.44
35878;BME280;21982;49.804;24.072;2022-09-17T08:43:51;96236.25;;;19.64;58.74
35878;BME280;21982;49.804;24.072;2022-09-17T08:46:24;96209.91;;;19.46;57.05
35878;BME280;21982;49.804;24.072;2022-09-17T08:49:19;96232.22;;;19.36;57.05
35878;BME280;21982;49.804;24.072;2022-09-17T09:02:42;96175.03;;;19.30;56.54
35878;BME280;21982;49.804;24.072;2022-09-17T09:05:17;96200.00;;;19.51;56.18
35878;BME280;21982;49.804;24.072;2022-09-17T09:07:47;96238.88;;;19.84;55.88
35878;BME280;21982;49.804;24.072;2022-09-17T09:10:24;96271.09;;;19.94;55.74
35878;BME280;21982;49.804;24.072;2022-09-17T09:12:51;96260.63;;;19.83;55.61
35878;BME280;21982;49.804;24.072;2022-09-17T09:15:20;96256.06;;;19.88;55.58
35878;BME280;21982;49.804;24.072;2022-09-17T09:17:50;96215.28;;;19.66;55.09
35878;BME280;21982;49.804;24.072;2022-09-17T09:20:22;96190.31;;;19.55;54.96
35878;BME280;21982;49.804;24.072;2022-09-17T09:22:51;96238.03;;;20.04;54.82
35878;BME280;21982;49.804;24.072;2022-09-17T09:25:20;96214.03;;;20.23;54.26
35878;BME280;21982;49.804;24.072;2022-09-17T09:27:59;96252.34;;;21.03;53.26
35878;BME280;21982;49.804;24.072;2022-09-17T09:33:30;96242.63;;;21.46;51.94
35878;BME280;21982;49.804;24.072;2022-09-17T09:35:56;96232.59;;;21.81;50.76
35878;BME280;21982;49.804;24.072;2022-09-17T09:38:31;96228.31;;;22.03;50.08
35878;BME280;21982;49.804;24.072;2022-09-17T09:43:50;96187.03;;;22.27;48.71
35878;BME280;21982;49.804;24.072;2022-09-17T09:49:21;96204.06;;;22.65;48.34
35878;BME280;21982;49.804;24.072;2022-09-17T09:55:09;96225.41;;;25.15;45.48
35878;BME280;21982;49.804;24.072;2022-09-17T09:57:47;96233.59;;;25.90;43.17
35878;BME280;21982;49.804;24.072;2022-09-17T10:03:03;96204.13;;;25.22;42.83
35878;BME280;21982;49.804;24.072;2022-09-17T10:08:13;96172.50;;;26.58;41.77
35878;BME280;21982;49.804;24.072;2022-09-17T10:10:55;96239.03;;;27.21;40.19
35878;BME280;21982;49.804;24.072;2022-09-17T10:13:31;96086.47;;;25.14;39.94
35878;BME280;21982;49.804;24.072;2022-09-17T10:16:24;96026.91;;;23.61;41.29
35878;BME280;21982;49.804;24.072;2022-09-17T10:23:56;96217.66;;;23.16;41.91
35878;BME280;21982;49.804;24.072;2022-09-17T10:26:25;96210.00;;;23.04;41.44
35878;BME280;21982;49.804;24.072;2022-09-17T10:28:55;96132.97;;;22.56;41.65
35878;BME280;21982;49.804;24.072;2022-09-17T10:31:23;96203.72;;;23.09;41.48
35878;BME280;21982;49.804;24.072;2022-09-17T10:34:01;96174.94;;;23.18;41.35
35878;BME280;21982;49.804;24.072;2022-09-17T10:36:46;96125.56;;;22.99;41.14
35878;BME280;21982;49.804;24.072;2022-09-17T10:39:29;96201.38;;;23.21;40.69
35878;BME280;21982;49.804;24.072;2022-09-17T10:42:14;96197.28;;;22.67;41.20
35878;BME280;21982;49.804;24.072;2022-09-17T10:44:53;96207.47;;;22.33;41.67
35878;BME280;21982;49.804;24.072;2022-09-17T10:47:28;96206.34;;;21.86;42.25
35878;BME280;21982;49.804;24.072;2022-09-17T10:50:01;96201.81;;;21.58;42.39
35878;BME280;21982;49.804;24.072;2022-09-17T10:52:34;96143.19;;;20.87;42.85
35878;BME280;21982;49.804;24.072;2022-09-17T11:00:43;96179.41;;;22.34;41.86
35878;BME280;21982;49.804;24.072;2022-09-17T11:06:01;96185.53;;;22.77;41.12
35878;BME280;21982;49.804;24.072;2022-09-17T11:08:58;96195.28;;;22.35;42.22
35878;BME280;21982;49.804;24.072;2022-09-17T11:14:18;96192.53;;;21.93;41.68
35878;BME280;21982;49.804;24.072;2022-09-17T11:17:00;96145.47;;;21.37;41.46
35878;BME280;21982;49.804;24.072;2022-09-17T11:30:31;96129.19;;;20.01;43.74
35878;BME280;21982;49.804;24.072;2022-09-17T11:35:47;96070.25;;;19.66;44.24
35878;BME280;21982;49.804;24.072;2022-09-17T11:38:21;96152.31;;;19.97;43.63
35878;BME280;21982;49.804;24.072;2022-09-17T11:40:57;96204.06;;;20.23;43.75
35878;BME280;21982;49.804;24.072;2022-09-17T11:43:31;96173.28;;;20.00;44.36
35878;BME280;21982;49.804;24.072;2022-09-17T11:48:53;96153.94;;;19.93;44.78
35878;BME280;21982;49.804;24.072;2022-09-17T11:51:53;96195.16;;;20.38;44.74
35878;BME280;21982;49.804;24.072;2022-09-17T11:54:30;96200.44;;;20.58;44.97
35878;BME280;21982;49.804;24.072;2022-09-17T12:02:18;96189.16;;;20.51;44.98
35878;BME280;21982;49.804;24.072;2022-09-17T12:04:54;96198.91;;;20.37;45.10
35878;BME280;21982;49.804;24.072;2022-09-17T12:13:17;96164.19;;;19.86;45.90
35878;BME280;21982;49.804;24.072;2022-09-17T12:19:09;96167.50;;;20.27;45.56
35878;BME280;21982;49.804;24.072;2022-09-17T12:21:46;96001.16;;;19.22;45.25
35878;BME280;21982;49.804;24.072;2022-09-17T12:24:24;96163.31;;;20.06;45.97
35878;BME280;21982;49.804;24.072;2022-09-17T12:35:02;96160.44;;;19.82;46.10
35878;BME280;21982;49.804;24.072;2022-09-17T12:40:48;96159.97;;;19.60;45.87
35878;BME280;21982;49.804;24.072;2022-09-17T12:51:43;96173.44;;;19.34;47.11
35878;BME280;21982;49.804;24.072;2022-09-17T12:54:17;96185.25;;;19.13;47.02
35878;BME280;21982;49.804;24.072;2022-09-17T12:59:29;96177.72;;;18.74;47.73
35878;BME280;21982;49.804;24.072;2022-09-17T13:11:13;96174.50;;;18.62;48.65
35878;BME280;21982;49.804;24.072;2022-09-17T13:16:51;96168.00;;;18.48;49.16
35878;BME280;21982;49.804;24.072;2022-09-17T13:19:46;96165.06;;;18.45;49.31
35878;BME280;21982;49.804;24.072;2022-09-17T13:22:19;96109.50;;;17.99;49.95
35878;BME280;21982;49.804;24.072;2022-09-17T13:25:08;96128.25;;;18.09;49.91
35878;BME280;21982;49.804;24.072;2022-09-17T13:27:39;96143.78;;;18.07;50.11
35878;BME280;21982;49.804;24.072;2022-09-17T13:30:07;96144.34;;;18.15;50.37
35878;BME280;21982;49.804;24.072;2022-09-17T13:37:42;96074.38;;;17.86;50.25
35878;BME280;21982;49.804;24.072;2022-09-17T13:43:15;96119.19;;;18.16;49.97
35878;BME280;21982;49.804;24.072;2022-09-17T13:48:34;96085.41;;;17.99;50.38
35878;BME280;21982;49.804;24.072;2022-09-17T13:53:26;96057.81;;;17.99;50.39
35878;BME280;21982;49.804;24.072;2022-09-17T13:55:56;96053.25;;;18.15;50.29
35878;BME280;21982;49.804;24.072;2022-09-17T13:58:34;96079.56;;;18.53;49.99
35878;BME280;21982;49.804;24.072;2022-09-17T14:01:11;96080.94;;;18.71;49.82
35878;BME280;21982;49.804;24.072;2022-09-17T14:16:47;96090.81;;;18.30;49.88
35878;BME280;21982;49.804;24.072;2022-09-17T14:22:07;96093.19;;;18.16;49.71
35878;BME280;21982;49.804;24.072;2022-09-17T14:30:13;96086.22;;;18.20;49.95
35878;BME280;21982;49.804;24.072;2022-09-17T14:40:45;96058.13;;;18.53;49.77
35878;BME280;21982;49.804;24.072;2022-09-17T14:45:52;95999.69;;;18.20;49.36
35878;BME280;21982;49.804;24.072;2022-09-17T14:48:29;96047.44;;;18.68;49.39
35878;BME280;21982;49.804;24.072;2022-09-17T14:54:06;96039.34;;;18.43;48.24
35878;BME280;21982;49.804;24.072;2022-09-17T14:56:47;96011.22;;;18.30;47.75
35878;BME280;21982;49.804;24.072;2022-09-17T14:59:42;96053.88;;;18.67;47.37
35878;BME280;21982;49.804;24.072;2022-09-17T15:02:39;96052.75;;;18.73;47.16
35878;BME280;21982;49.804;24.072;2022-09-17T15:07:45;96046.31;;;18.49;47.59
35878;BME280;21982;49.804;24.072;2022-09-17T15:10:20;96069.91;;;18.47;47.56
35878;BME280;21982;49.804;24.072;2022-09-17T15:12:47;96058.13;;;18.28;48.03
35878;BME280;21982;49.804;24.072;2022-09-17T15:15:24;96050.59;;;18.25;48.09
35878;BME280;21982;49.804;24.072;2022-09-17T15:17:51;96038.25;;;18.14;48.23
35878;BME280;21982;49.804;24.072;2022-09-17T15:20:26;96044.16;;;18.16;48.20
35878;BME280;21982;49.804;24.072;2022-09-17T15:23:16;96045.75;;;18.12;48.38
35878;BME280;21982;49.804;24.072;2022-09-17T15:25:46;96036.63;;;18.02;48.64
35878;BME280;21982;49.804;24.072;2022-09-17T15:28:27;96006.59;;;17.80;48.67
35878;BME280;21982;49.804;24.072;2022-09-17T15:30:55;96020.84;;;17.91;48.88
35878;BME280;21982;49.804;24.072;2022-09-17T15:33:21;96005.00;;;17.79;49.09
35878;BME280;21982;49.804;24.072;2022-09-17T15:36:18;96022.19;;;17.93;49.09
35878;BME280;21982;49.804;24.072;2022-09-17T15:38:46;96017.03;;;17.77;49.21
35878;BME280;21982;49.804;24.072;2022-09-17T15:43:44;96010.63;;;17.78;49.45
35878;BME280;21982;49.804;24.072;2022-09-17T15:46:25;96017.84;;;17.77;49.48
35878;BME280;21982;49.804;24.072;2022-09-17T15:49:00;95956.16;;;17.41;49.80
35878;BME280;21982;49.804;24.072;2022-09-17T15:51:30;95951.34;;;17.38;49.76
35878;BME280;21982;49.804;24.072;2022-09-17T15:54:02;95997.75;;;17.69;49.80
35878;BME280;21982;49.804;24.072;2022-09-17T15:56:35;95999.88;;;17.62;49.83
35878;BME280;21982;49.804;24.072;2022-09-17T15:59:04;96002.19;;;17.38;49.85
35878;BME280;21982;49.804;24.072;2022-09-17T16:09:42;96049.97;;;17.15;50.12
35878;BME280;21982;49.804;24.072;2022-09-17T16:12:19;95998.94;;;16.74;50.77
35878;BME280;21982;49.804;24.072;2022-09-17T16:14:47;96044.28;;;17.01;50.78
35878;BME280;21982;49.804;24.072;2022-09-17T16:19:54;96052.66;;;16.72;51.40
35878;BME280;21982;49.804;24.072;2022-09-17T16:22:20;96050.50;;;16.69;51.63
35878;BME280;21982;49.804;24.072;2022-09-17T16:24:46;96050.25;;;16.71;51.81
35878;BME280;21982;49.804;24.072;2022-09-17T16:27:18;96050.78;;;16.73;51.40
35878;BME280;21982;49.804;24.072;2022-09-17T16:29:48;96018.81;;;16.51;51.50
35878;BME280;21982;49.804;24.072;2022-09-17T16:32:14;96047.28;;;16.67;51.50
35878;BME280;21982;49.804;24.072;2022-09-17T16:34:40;96044.84;;;16.66;51.46
35878;BME280;21982;49.804;24.072;2022-09-17T16:37:05;96019.88;;;16.50;51.67
35878;BME280;21982;49.804;24.072;2022-09-17T16:39:31;96014.53;;;16.50;51.83
35878;BME280;21982;49.804;24.072;2022-09-17T16:41:57;96026.63;;;16.58;51.69
35878;BME280;21982;49.804;24.072;2022-09-17T16:44:22;96023.94;;;16.58;51.79
35878;BME280;21982;49.804;24.072;2022-09-17T16:46:47;96033.88;;;16.62;51.84
35878;BME280;21982;49.804;24.072;2022-09-17T16:49:14;95988.25;;;16.37;51.99
35878;BME280;21982;49.804;24.072;2022-09-17T16:51:39;95987.94;;;16.33;52.19
35878;BME280;21982;49.804;24.072;2022-09-17T16:54:07;96021.28;;;16.58;52.16